createdAt,value
2018-11-26T00:00:07.995Z,5.50
2018-11-26T00:02:36.509Z,5.50
2018-11-26T00:05:05.182Z,5.50
2018-11-26T00:07:33.657Z,5.40
2018-11-26T00:10:13.358Z,5.50
2018-11-26T00:12:41.827Z,5.60
2018-11-26T00:15:10.465Z,5.50
2018-11-26T00:17:38.935Z,5.40
2018-11-26T00:20:07.454Z,5.40
2018-11-26T00:22:35.953Z,5.40
2018-11-26T00:25:04.631Z,5.50
2018-11-26T00:27:33.085Z,5.50
2018-11-26T00:30:01.536Z,5.40
2018-11-26T00:32:29.965Z,5.40
2018-11-26T00:34:58.435Z,5.40
2018-11-26T00:37:26.902Z,5.40
2018-11-26T00:39:55.378Z,5.50
2018-11-26T00:42:23.824Z,5.50
2018-11-26T00:44:52.337Z,5.50
2018-11-26T00:47:20.774Z,5.50
2018-11-26T00:49:49.205Z,5.50
2018-11-26T00:52:17.655Z,5.40
2018-11-26T00:54:46.185Z,5.40
2018-11-26T00:57:15.236Z,5.50
2018-11-26T00:59:43.770Z,5.60
2018-11-26T01:02:12.911Z,5.70
2018-11-26T01:04:41.449Z,5.70
2018-11-26T01:07:09.940Z,5.60
2018-11-26T01:09:38.389Z,5.60
2018-11-26T01:12:06.844Z,5.60
2018-11-26T01:14:35.357Z,5.60
2018-11-26T01:17:03.847Z,5.60
2018-11-26T01:19:32.296Z,5.60
2018-11-26T01:22:00.744Z,5.60
2018-11-26T01:24:29.240Z,5.70
2018-11-26T01:26:57.730Z,5.60
2018-11-26T01:29:26.194Z,5.70
2018-11-26T01:31:54.702Z,5.70
2018-11-26T01:34:23.905Z,5.90
2018-11-26T01:36:52.427Z,5.80
2018-11-26T01:39:20.911Z,5.70
2018-11-26T01:41:49.366Z,5.80
2018-11-26T01:44:17.932Z,5.80
2018-11-26T01:46:46.438Z,5.90
2018-11-26T01:49:14.882Z,5.80
2018-11-26T01:51:43.294Z,5.80
2018-11-26T01:54:11.751Z,5.80
2018-11-26T01:56:40.250Z,5.80
2018-11-26T01:59:08.688Z,5.90
2018-11-26T02:01:37.120Z,6.00
2018-11-26T02:04:05.599Z,5.90
2018-11-26T02:06:34.042Z,5.90
2018-11-26T02:09:02.534Z,6.00
2018-11-26T02:11:31.013Z,6.10
2018-11-26T02:13:59.481Z,6.10
2018-11-26T02:16:27.921Z,6.10
2018-11-26T02:18:56.361Z,6.00
2018-11-26T02:21:24.821Z,6.00
2018-11-26T02:23:53.330Z,6.10
2018-11-26T02:26:21.863Z,6.00
2018-11-26T02:28:50.329Z,6.00
2018-11-26T02:31:18.794Z,6.10
2018-11-26T02:33:47.262Z,6.20
2018-11-26T02:36:16.814Z,6.10
2018-11-26T02:38:45.329Z,6.00
2018-11-26T02:41:13.792Z,6.00
2018-11-26T02:43:42.294Z,6.00
2018-11-26T02:46:10.738Z,6.10
2018-11-26T02:48:39.178Z,6.20
2018-11-26T02:51:07.647Z,6.10
2018-11-26T02:53:36.191Z,6.00
2018-11-26T02:56:04.689Z,6.00
2018-11-26T02:58:33.133Z,6.10
2018-11-26T03:01:01.573Z,6.10
2018-11-26T03:03:30.137Z,6.10
2018-11-26T03:05:58.620Z,6.20
2018-11-26T03:08:27.146Z,6.10
2018-11-26T03:10:55.704Z,6.10
2018-11-26T03:13:24.214Z,6.10
2018-11-26T03:15:52.677Z,6.10
2018-11-26T03:18:21.125Z,6.20
2018-11-26T03:20:49.593Z,6.30
2018-11-26T03:23:18.060Z,6.30
2018-11-26T03:25:46.469Z,6.30
2018-11-26T03:28:14.948Z,6.30
2018-11-26T03:30:43.372Z,6.20
2018-11-26T03:33:11.971Z,6.20
2018-11-26T03:35:40.610Z,6.10
2018-11-26T03:38:12.498Z,6.10
2018-11-26T03:40:41.312Z,6.10
2018-11-26T03:43:10.109Z,6.00
2018-11-26T03:45:38.551Z,6.00
2018-11-26T03:48:07.445Z,6.10
2018-11-26T03:50:35.973Z,6.00
2018-11-26T03:53:04.508Z,6.00
2018-11-26T03:55:33.087Z,5.90
2018-11-26T03:58:01.555Z,5.90
2018-11-26T04:00:30.053Z,5.90
2018-11-26T04:02:58.544Z,6.00
2018-11-26T04:05:27.055Z,5.90
2018-11-26T04:07:55.498Z,6.10
2018-11-26T04:10:24.033Z,6.00
2018-11-26T04:12:53.474Z,6.00
2018-11-26T04:15:21.963Z,5.90
2018-11-26T04:17:50.468Z,5.90
2018-11-26T04:20:18.974Z,6.00
2018-11-26T04:22:47.582Z,6.00
2018-11-26T04:25:16.115Z,6.00
2018-11-26T04:27:44.580Z,6.00
2018-11-26T04:30:13.054Z,6.00
2018-11-26T04:32:41.541Z,6.10
2018-11-26T04:35:10.937Z,5.90
2018-11-26T04:37:39.390Z,6.00
2018-11-26T04:40:10.176Z,6.00
2018-11-26T04:42:38.696Z,5.90
2018-11-26T04:45:08.672Z,6.00
2018-11-26T04:47:37.215Z,6.00
2018-11-26T04:50:08.446Z,6.00
2018-11-26T04:52:36.877Z,5.90
2018-11-26T04:55:05.555Z,6.10
2018-11-26T04:57:34.241Z,6.10
2018-11-26T05:00:02.527Z,6.00
2018-11-26T05:02:30.969Z,6.10
2018-11-26T05:04:59.480Z,6.10
2018-11-26T05:07:27.906Z,6.00
2018-11-26T05:09:56.389Z,5.90
2018-11-26T05:12:24.842Z,6.00
2018-11-26T05:14:53.303Z,5.90
2018-11-26T05:17:21.749Z,6.00
2018-11-26T05:19:50.205Z,6.10
2018-11-26T05:22:18.998Z,6.10
2018-11-26T05:24:47.451Z,6.10
2018-11-26T05:27:15.852Z,6.00
2018-11-26T05:29:44.356Z,5.90
2018-11-26T05:32:12.801Z,6.00
2018-11-26T05:34:41.277Z,6.00
2018-11-26T05:37:09.737Z,6.00
2018-11-26T05:39:38.157Z,6.00
2018-11-26T05:42:06.620Z,5.90
2018-11-26T05:44:35.060Z,6.00
2018-11-26T05:47:03.474Z,6.00
2018-11-26T05:49:31.938Z,5.90
2018-11-26T05:52:00.392Z,5.90
2018-11-26T05:54:29.657Z,6.00
2018-11-26T05:56:58.171Z,6.00
2018-11-26T05:59:26.652Z,6.10
2018-11-26T06:01:55.104Z,6.20
2018-11-26T06:04:23.578Z,6.20
2018-11-26T06:06:52.038Z,6.10
2018-11-26T06:09:20.502Z,6.00
2018-11-26T06:11:48.947Z,6.10
2018-11-26T06:14:17.435Z,6.10
2018-11-26T06:16:53.277Z,6.00
2018-11-26T06:19:14.436Z,6.10
2018-11-26T06:21:42.896Z,6.10
2018-11-26T06:24:11.442Z,6.10
2018-11-26T06:26:39.900Z,6.20
2018-11-26T06:29:08.376Z,6.20
2018-11-26T06:31:36.873Z,6.10
2018-11-26T06:34:05.546Z,6.20
2018-11-26T06:36:34.061Z,6.10
2018-11-26T06:39:02.583Z,6.10
2018-11-26T06:41:31.057Z,6.10
2018-11-26T06:43:59.478Z,6.10
2018-11-26T06:46:27.956Z,6.20
2018-11-26T06:48:56.451Z,6.10
2018-11-26T06:51:24.940Z,6.20
2018-11-26T06:53:53.377Z,6.10
2018-11-26T06:56:22.003Z,6.00
2018-11-26T06:58:50.445Z,5.90
2018-11-26T07:01:18.902Z,6.00
2018-11-26T07:03:47.362Z,6.00
2018-11-26T07:06:15.862Z,5.90
2018-11-26T07:08:44.290Z,6.00
2018-11-26T07:11:12.817Z,6.00
2018-11-26T07:13:41.927Z,6.00
2018-11-26T07:18:33.582Z,6.10
2018-11-26T07:21:01.998Z,6.10
2018-11-26T07:23:30.422Z,6.10
2018-11-26T07:25:58.885Z,5.90
2018-11-26T07:28:27.349Z,5.90
2018-11-26T07:30:55.786Z,6.00
2018-11-26T07:33:24.258Z,6.00
2018-11-26T07:35:52.716Z,6.10
2018-11-26T07:38:21.205Z,6.00
2018-11-26T07:40:50.291Z,6.00
2018-11-26T07:43:20.004Z,6.10
2018-11-26T07:45:48.434Z,6.10
2018-11-26T07:48:16.883Z,6.10
2018-11-26T07:50:45.319Z,6.10
2018-11-26T07:53:13.741Z,6.20
2018-11-26T07:55:42.208Z,6.20
2018-11-26T07:58:10.710Z,6.20
2018-11-26T08:00:39.146Z,6.20
2018-11-26T08:03:07.677Z,6.20
2018-11-26T08:05:36.098Z,6.30
2018-11-26T08:08:04.597Z,6.30
2018-11-26T08:10:33.044Z,6.20
2018-11-26T08:13:01.516Z,6.20
2018-11-26T08:15:30.010Z,6.30
2018-11-26T08:17:58.511Z,6.30
2018-11-26T08:20:27.034Z,6.20
2018-11-26T08:22:55.481Z,6.00
2018-11-26T08:25:24.441Z,6.10
2018-11-26T08:27:53.241Z,6.10
2018-11-26T08:30:23.780Z,6.20
2018-11-26T08:32:55.482Z,6.20
2018-11-26T08:35:24.025Z,6.20
2018-11-26T08:37:57.412Z,6.00
2018-11-26T08:40:28.898Z,6.00
2018-11-26T08:42:58.301Z,6.20
2018-11-26T08:45:34.342Z,6.10
2018-11-26T08:48:06.192Z,6.20
2018-11-26T08:50:34.681Z,6.20
2018-11-26T08:53:03.113Z,6.30
2018-11-26T08:55:31.566Z,6.20
2018-11-26T08:58:00.018Z,6.20
2018-11-26T09:00:28.936Z,6.20
2018-11-26T09:03:05.512Z,6.20
2018-11-26T09:05:35.878Z,6.30
2018-11-26T09:08:04.344Z,6.30
2018-11-26T09:10:32.907Z,6.40
2018-11-26T09:13:01.362Z,6.40
2018-11-26T09:15:29.854Z,6.30
2018-11-26T09:17:58.307Z,6.30
2018-11-26T09:20:26.837Z,6.40
2018-11-26T09:22:55.271Z,6.30
2018-11-26T09:25:23.750Z,6.40
2018-11-26T09:27:52.191Z,6.50
2018-11-26T09:30:20.623Z,6.50
2018-11-26T09:32:49.044Z,6.50
2018-11-26T09:35:17.592Z,6.50
2018-11-26T09:37:46.061Z,6.50
2018-11-26T09:40:16.466Z,6.60
2018-11-26T09:42:45.069Z,6.70
2018-11-26T09:45:15.582Z,6.90
2018-11-26T09:47:44.104Z,6.70
2018-11-26T09:50:14.639Z,6.60
2018-11-26T09:52:43.142Z,6.60
2018-11-26T09:55:12.598Z,6.60
2018-11-26T09:57:41.085Z,6.70
2018-11-26T10:00:16.561Z,6.80
2018-11-26T10:02:46.194Z,6.70
2018-11-26T10:05:16.042Z,6.90
2018-11-26T10:07:44.506Z,6.90
2018-11-26T10:10:13.339Z,7.00
2018-11-26T10:12:42.540Z,6.90
2018-11-26T10:15:13.320Z,6.80
2018-11-26T10:17:41.760Z,6.80
2018-11-26T10:20:11.062Z,6.60
2018-11-26T10:22:39.711Z,6.70
2018-11-26T10:25:14.786Z,6.90
2018-11-26T10:27:43.307Z,7.00
2018-11-26T10:30:12.780Z,6.90
2018-11-26T10:32:41.445Z,7.00
2018-11-26T10:35:11.274Z,6.90
2018-11-26T10:37:39.751Z,7.00
2018-11-26T10:40:12.370Z,6.90
2018-11-26T10:42:40.869Z,6.90
2018-11-26T10:45:10.902Z,6.90
2018-11-26T10:47:39.421Z,7.00
2018-11-26T10:50:10.653Z,7.00
2018-11-26T10:52:39.388Z,7.10
2018-11-26T10:55:10.072Z,6.90
2018-11-26T10:57:38.624Z,7.00
2018-11-26T11:00:13.359Z,7.10
2018-11-26T11:02:42.111Z,7.00
2018-11-26T11:05:10.861Z,7.00
2018-11-26T11:07:39.456Z,7.10
2018-11-26T11:10:12.297Z,7.20
2018-11-26T11:12:40.741Z,7.20
2018-11-26T11:15:11.422Z,7.30
2018-11-26T11:17:39.956Z,7.20
2018-11-26T11:20:15.993Z,7.20
2018-11-26T11:22:44.518Z,7.20
2018-11-26T11:25:14.017Z,7.30
2018-11-26T11:27:42.551Z,7.30
2018-11-26T11:30:17.277Z,7.40
2018-11-26T11:32:45.815Z,7.50
2018-11-26T11:35:15.067Z,7.50
2018-11-26T11:37:44.533Z,7.50
2018-11-26T11:40:16.432Z,7.30
2018-11-26T11:42:44.923Z,7.40
2018-11-26T11:45:13.919Z,7.40
2018-11-26T11:47:42.496Z,7.40
2018-11-26T11:50:12.896Z,7.40
2018-11-26T11:52:41.442Z,7.30
2018-11-26T11:55:12.031Z,7.50
2018-11-26T11:57:40.525Z,7.40
2018-11-26T12:00:12.042Z,7.40
2018-11-26T12:02:41.786Z,7.40
2018-11-26T12:05:12.901Z,7.30
2018-11-26T12:07:41.400Z,7.40
2018-11-26T12:10:11.825Z,7.50
2018-11-26T12:12:40.295Z,7.50
2018-11-26T12:15:10.507Z,7.30
2018-11-26T12:17:39.013Z,7.30
2018-11-26T12:20:09.915Z,7.40
2018-11-26T12:22:38.451Z,7.40
2018-11-26T12:25:08.630Z,7.30
2018-11-26T12:27:37.036Z,7.40
2018-11-26T12:30:10.867Z,7.50
2018-11-26T12:32:39.352Z,7.50
2018-11-26T12:35:07.823Z,7.50
2018-11-26T12:37:36.296Z,7.60
2018-11-26T12:40:06.468Z,7.60
2018-11-26T12:42:34.918Z,7.60
2018-11-26T12:45:03.452Z,7.50
2018-11-26T12:47:31.897Z,7.60
2018-11-26T12:50:00.337Z,7.70
2018-11-26T12:52:28.901Z,7.60
2018-11-26T12:54:57.425Z,7.60
2018-11-26T12:57:25.877Z,7.60
2018-11-26T12:59:54.334Z,7.50
2018-11-26T13:02:22.854Z,7.50
2018-11-26T13:04:51.368Z,7.40
2018-11-26T13:07:19.915Z,7.50
2018-11-26T13:09:48.454Z,7.60
2018-11-26T13:12:16.934Z,7.50
2018-11-26T13:14:45.355Z,7.50
2018-11-26T13:17:13.811Z,7.50
2018-11-26T13:19:42.327Z,7.40
2018-11-26T13:22:10.797Z,7.50
2018-11-26T13:24:39.236Z,7.50
2018-11-26T13:27:07.726Z,7.60
2018-11-26T13:29:36.221Z,7.70
2018-11-26T13:32:04.710Z,7.60
2018-11-26T13:34:33.207Z,7.50
2018-11-26T13:37:01.725Z,7.50
2018-11-26T13:39:30.202Z,7.50
2018-11-26T13:41:58.716Z,7.50
2018-11-26T13:44:27.182Z,7.50
2018-11-26T13:46:55.624Z,7.50
2018-11-26T13:49:24.072Z,7.40
2018-11-26T13:51:52.652Z,7.40
2018-11-26T13:54:21.281Z,7.50
2018-11-26T13:56:50.732Z,7.50
2018-11-26T13:59:19.302Z,7.30
2018-11-26T14:01:47.915Z,7.40
2018-11-26T14:04:16.371Z,7.50
2018-11-26T14:06:44.851Z,7.40
2018-11-26T14:09:13.351Z,7.40
2018-11-26T14:11:41.819Z,7.40
2018-11-26T14:14:10.323Z,7.50
2018-11-26T14:16:38.775Z,7.40
2018-11-26T14:19:07.452Z,7.50
2018-11-26T14:21:35.944Z,7.50
2018-11-26T14:24:04.447Z,7.50
2018-11-26T14:26:32.961Z,7.30
2018-11-26T14:29:01.571Z,7.60
2018-11-26T14:31:30.043Z,7.50
2018-11-26T14:33:58.558Z,7.40
2018-11-26T14:36:27.070Z,7.40
2018-11-26T14:38:55.551Z,7.60
2018-11-26T14:41:24.025Z,7.60
2018-11-26T14:43:53.145Z,7.70
2018-11-26T14:46:21.651Z,7.70
2018-11-26T14:48:50.187Z,7.70
2018-11-26T14:51:18.664Z,7.60
2018-11-26T14:53:47.127Z,7.50
2018-11-26T14:56:15.610Z,7.70
2018-11-26T14:58:44.144Z,7.80
2018-11-26T15:01:12.661Z,7.70
2018-11-26T15:03:41.168Z,7.70
2018-11-26T15:06:09.599Z,7.50
2018-11-26T15:08:38.133Z,7.60
2018-11-26T15:11:08.039Z,7.50
2018-11-26T15:13:36.525Z,7.30
2018-11-26T15:16:05.094Z,7.50
2018-11-26T15:18:33.566Z,7.50
2018-11-26T15:21:02.046Z,7.40
2018-11-26T15:23:30.505Z,7.30
2018-11-26T15:25:58.977Z,7.30
2018-11-26T15:28:27.455Z,7.30
2018-11-26T15:30:55.949Z,7.40
2018-11-26T15:33:24.398Z,7.40
2018-11-26T15:35:52.850Z,7.20
2018-11-26T15:38:21.320Z,7.20
2018-11-26T15:40:49.811Z,7.30
2018-11-26T15:43:18.363Z,7.20
2018-11-26T15:45:46.844Z,7.20
2018-11-26T15:48:15.324Z,7.20
2018-11-26T15:50:43.801Z,7.10
2018-11-26T15:53:12.270Z,7.10
2018-11-26T15:55:40.788Z,7.10
2018-11-26T15:58:09.963Z,7.20
2018-11-26T16:00:38.496Z,7.00
2018-11-26T16:03:07.283Z,7.10
2018-11-26T16:05:37.732Z,7.20
2018-11-26T16:08:08.928Z,7.20
2018-11-26T16:10:37.407Z,7.00
2018-11-26T16:13:07.559Z,7.00
2018-11-26T16:15:39.488Z,6.90
2018-11-26T16:18:10.446Z,6.90
2018-11-26T16:20:38.899Z,6.90
2018-11-26T16:23:08.760Z,6.70
2018-11-26T16:25:38.989Z,6.80
2018-11-26T16:28:07.457Z,6.90
2018-11-26T16:30:36.018Z,7.00
2018-11-26T16:33:04.544Z,7.00
2018-11-26T16:35:33.885Z,6.90
2018-11-26T16:38:02.418Z,6.90
2018-11-26T16:40:30.898Z,6.90
2018-11-26T16:42:59.414Z,6.70
2018-11-26T16:45:28.532Z,6.80
2018-11-26T16:47:58.050Z,7.00
2018-11-26T16:50:27.887Z,6.90
2018-11-26T16:52:56.363Z,6.90
2018-11-26T16:55:24.873Z,6.70
2018-11-26T16:57:53.381Z,6.70
2018-11-26T17:00:23.967Z,6.60
2018-11-26T17:02:55.468Z,6.60
2018-11-26T17:05:25.720Z,6.70
2018-11-26T17:07:54.167Z,6.60
2018-11-26T17:10:22.675Z,6.60
2018-11-26T17:12:51.205Z,6.60
2018-11-26T17:15:19.676Z,6.70
2018-11-26T17:17:48.098Z,6.70
2018-11-26T17:20:17.334Z,6.60
2018-11-26T17:22:46.678Z,6.60
2018-11-26T17:25:16.158Z,6.50
2018-11-26T17:27:45.127Z,6.50
2018-11-26T17:30:16.816Z,6.50
2018-11-26T17:32:45.942Z,6.50
2018-11-26T17:35:15.276Z,6.50
2018-11-26T17:37:43.823Z,6.40
2018-11-26T17:40:17.736Z,6.30
2018-11-26T17:42:46.263Z,6.30
2018-11-26T17:45:15.372Z,6.20
2018-11-26T17:47:49.070Z,6.10
2018-11-26T17:50:20.266Z,6.10
2018-11-26T17:52:48.810Z,6.30
2018-11-26T17:55:17.271Z,6.10
2018-11-26T17:57:46.528Z,6.10
2018-11-26T18:00:23.162Z,6.00
2018-11-26T18:02:51.730Z,6.20
2018-11-26T18:05:28.231Z,6.20
2018-11-26T18:07:58.567Z,6.10
2018-11-26T18:10:27.023Z,6.10
2018-11-26T18:12:55.452Z,6.20
2018-11-26T18:15:23.955Z,6.10
2018-11-26T18:17:52.417Z,6.10
2018-11-26T18:20:21.778Z,6.00
2018-11-26T18:22:52.220Z,6.00
2018-11-26T18:25:21.311Z,6.10
2018-11-26T18:27:52.515Z,5.90
2018-11-26T18:30:25.082Z,5.90
2018-11-26T18:32:53.557Z,5.90
2018-11-26T18:35:22.067Z,5.90
2018-11-26T18:37:50.586Z,5.90
2018-11-26T18:40:19.043Z,6.00
2018-11-26T18:42:47.541Z,5.90
2018-11-26T18:45:18.087Z,6.00
2018-11-26T18:47:47.176Z,5.90
2018-11-26T18:50:16.831Z,5.90
2018-11-26T18:52:45.909Z,6.00
2018-11-26T18:55:14.398Z,6.20
2018-11-26T18:57:43.092Z,6.00
2018-11-26T19:00:19.127Z,5.90
2018-11-26T19:02:47.640Z,5.80
2018-11-26T19:05:17.035Z,5.80
2018-11-26T19:07:45.659Z,5.70
2018-11-26T19:10:16.218Z,5.90
2018-11-26T19:12:48.157Z,5.70
2018-11-26T19:15:36.876Z,5.80
2018-11-26T19:18:16.363Z,5.80
2018-11-26T19:20:44.898Z,5.70
2018-11-26T19:23:13.380Z,5.80
2018-11-26T19:25:41.870Z,5.90
2018-11-26T19:28:10.348Z,5.90
2018-11-26T19:30:38.845Z,5.90
2018-11-26T19:33:08.439Z,5.70
2018-11-26T19:35:37.868Z,5.90
2018-11-26T19:38:07.077Z,5.90
2018-11-26T19:40:36.510Z,6.00
2018-11-26T19:43:05.221Z,5.90
2018-11-26T19:45:33.698Z,5.80
2018-11-26T19:48:03.187Z,5.90
2018-11-26T19:50:31.684Z,6.00
2018-11-26T19:53:00.197Z,5.90
2018-11-26T19:55:28.841Z,5.90
2018-11-26T19:57:58.305Z,5.90
2018-11-26T20:00:30.554Z,5.90
2018-11-26T20:03:01.406Z,5.90
2018-11-26T20:05:36.250Z,6.10
2018-11-26T20:08:04.764Z,6.10
2018-11-26T20:10:33.247Z,6.00
2018-11-26T20:13:01.686Z,6.00
2018-11-26T20:15:30.173Z,6.00
2018-11-26T20:17:59.188Z,6.00
2018-11-26T20:20:27.170Z,6.00
2018-11-26T20:22:55.631Z,5.90
2018-11-26T20:25:24.115Z,5.70
2018-11-26T20:27:52.579Z,5.70
2018-11-26T20:30:21.075Z,5.60
2018-11-26T20:32:49.593Z,5.70
2018-11-26T20:35:18.079Z,5.70
2018-11-26T20:37:46.575Z,5.70
2018-11-26T20:40:16.152Z,5.50
2018-11-26T20:42:49.582Z,5.70
2018-11-26T20:45:18.067Z,5.70
2018-11-26T20:47:47.423Z,5.70
2018-11-26T20:50:33.325Z,5.80
2018-11-26T20:53:01.786Z,5.60
2018-11-26T20:55:31.289Z,5.70
2018-11-26T20:57:59.777Z,5.70
2018-11-26T21:00:29.230Z,5.60
2018-11-26T21:03:04.408Z,5.50
2018-11-26T21:05:32.969Z,5.60
2018-11-26T21:08:01.445Z,5.60
2018-11-26T21:10:29.939Z,5.40
2018-11-26T21:12:58.456Z,5.60
2018-11-26T21:15:26.954Z,5.50
2018-11-26T21:17:56.556Z,5.70
2018-11-26T21:20:29.515Z,5.70
2018-11-26T21:22:58.482Z,5.70
2018-11-26T21:25:26.976Z,5.60
2018-11-26T21:27:56.699Z,5.40
2018-11-26T21:30:25.770Z,5.40
2018-11-26T21:32:54.227Z,5.40
2018-11-26T21:35:22.796Z,5.40
2018-11-26T21:37:52.203Z,5.40
2018-11-26T21:40:22.121Z,5.50
2018-11-26T21:42:50.574Z,5.60
2018-11-26T21:45:23.463Z,5.60
2018-11-26T21:47:51.913Z,5.60
2018-11-26T21:50:20.355Z,5.50
2018-11-26T21:52:48.816Z,5.40
2018-11-26T21:55:18.252Z,5.50
2018-11-26T21:57:46.864Z,5.60
2018-11-26T22:00:24.104Z,5.70
2018-11-26T22:02:53.519Z,5.60
2018-11-26T22:05:22.079Z,5.60
2018-11-26T22:07:51.041Z,5.60
2018-11-26T22:10:20.842Z,5.60
2018-11-26T22:12:51.505Z,5.80
2018-11-26T22:15:20.048Z,5.90
2018-11-26T22:17:48.643Z,5.60
2018-11-26T22:20:22.324Z,5.50
2018-11-26T22:22:50.982Z,5.30
2018-11-26T22:25:19.620Z,5.60
2018-11-26T22:27:48.268Z,5.40
2018-11-26T22:30:29.708Z,5.70
2018-11-26T22:32:58.277Z,5.60
2018-11-26T22:35:26.796Z,5.70
2018-11-26T22:37:55.335Z,5.70
2018-11-26T22:40:25.287Z,5.60
2018-11-26T22:42:53.993Z,5.70
2018-11-26T22:45:25.222Z,5.60
2018-11-26T22:47:57.936Z,5.50
2018-11-26T22:50:26.566Z,5.30
2018-11-26T22:52:55.119Z,5.50
2018-11-26T22:55:23.735Z,5.60
2018-11-26T22:57:52.496Z,5.30
2018-11-26T23:00:23.938Z,5.40
2018-11-26T23:02:53.796Z,5.60
2018-11-26T23:05:22.466Z,5.50
2018-11-26T23:07:51.096Z,5.60
2018-11-26T23:10:19.726Z,5.70
2018-11-26T23:12:48.340Z,5.70
2018-11-26T23:15:17.122Z,5.70
2018-11-26T23:17:46.481Z,5.70
2018-11-26T23:20:16.959Z,5.70
2018-11-26T23:22:45.572Z,5.70
2018-11-26T23:25:17.376Z,5.60
2018-11-26T23:27:45.999Z,5.70
2018-11-26T23:30:16.723Z,5.70
2018-11-26T23:32:46.200Z,5.70
2018-11-26T23:35:15.428Z,5.80
2018-11-26T23:37:44.275Z,5.70
2018-11-26T23:40:13.517Z,5.80
2018-11-26T23:42:42.123Z,5.60
2018-11-26T23:45:12.808Z,5.60
2018-11-26T23:47:41.532Z,5.70
2018-11-26T23:50:13.411Z,5.70
2018-11-26T23:52:44.674Z,5.70
2018-11-26T23:55:20.617Z,5.70
